sensor_id;sensor_type;location;lat;lon;timestamp;P1;durP1;ratioP1;P2;durP2;ratioP2
48215;SDS011;34005;48.844;10.098;2024-03-23T00:52:01;11.07;;;6.10;;
48215;SDS011;34005;48.844;10.098;2024-03-23T00:54:29;7.53;;;4.72;;
48215;SDS011;34005;48.844;10.098;2024-03-23T00:56:54;7.18;;;4.45;;
48215;SDS011;34005;48.844;10.098;2024-03-23T00:59:21;10.90;;;5.28;;
48215;SDS011;34005;48.844;10.098;2024-03-23T01:01:47;7.50;;;5.03;;
48215;SDS011;34005;48.844;10.098;2024-03-23T01:04:14;6.75;;;4.57;;
48215;SDS011;34005;48.844;10.098;2024-03-23T01:06:40;6.28;;;4.35;;
48215;SDS011;34005;48.844;10.098;2024-03-23T01:09:08;4.70;;;4.25;;
48215;SDS011;34005;48.844;10.098;2024-03-23T01:11:36;6.82;;;4.38;;
48215;SDS011;34005;48.844;10.098;2024-03-23T01:14:02;6.00;;;3.83;;
48215;SDS011;34005;48.844;10.098;2024-03-23T01:16:28;10.15;;;5.15;;
48215;SDS011;34005;48.844;10.098;2024-03-23T01:18:55;5.60;;;4.50;;
48215;SDS011;34005;48.844;10.098;2024-03-23T01:21:20;5.72;;;4.60;;
48215;SDS011;34005;48.844;10.098;2024-03-23T01:23:47;5.75;;;4.43;;
48215;SDS011;34005;48.844;10.098;2024-03-23T01:26:14;5.72;;;4.30;;
48215;SDS011;34005;48.844;10.098;2024-03-23T01:28:41;8.13;;;4.13;;
48215;SDS011;34005;48.844;10.098;2024-03-23T01:31:06;6.90;;;4.53;;
48215;SDS011;34005;48.844;10.098;2024-03-23T01:33:33;4.90;;;3.83;;
48215;SDS011;34005;48.844;10.098;2024-03-23T01:35:58;8.52;;;4.63;;
48215;SDS011;34005;48.844;10.098;2024-03-23T01:38:25;6.15;;;4.30;;
48215;SDS011;34005;48.844;10.098;2024-03-23T01:40:55;4.97;;;3.70;;
48215;SDS011;34005;48.844;10.098;2024-03-23T01:43:24;6.28;;;4.05;;
48215;SDS011;34005;48.844;10.098;2024-03-23T01:45:49;7.60;;;4.07;;
48215;SDS011;34005;48.844;10.098;2024-03-23T01:48:19;5.88;;;4.07;;
48215;SDS011;34005;48.844;10.098;2024-03-23T01:50:44;7.68;;;4.63;;
48215;SDS011;34005;48.844;10.098;2024-03-23T01:53:12;5.32;;;3.95;;
48215;SDS011;34005;48.844;10.098;2024-03-23T01:55:40;5.28;;;4.10;;
48215;SDS011;34005;48.844;10.098;2024-03-23T01:58:07;5.20;;;3.92;;
48215;SDS011;34005;48.844;10.098;2024-03-23T02:00:34;7.65;;;3.80;;
48215;SDS011;34005;48.844;10.098;2024-03-23T02:03:00;5.07;;;4.07;;
48215;SDS011;34005;48.844;10.098;2024-03-23T02:05:26;7.25;;;4.28;;
48215;SDS011;34005;48.844;10.098;2024-03-23T02:07:52;3.50;;;3.08;;
48215;SDS011;34005;48.844;10.098;2024-03-23T02:10:18;7.07;;;3.58;;
48215;SDS011;34005;48.844;10.098;2024-03-23T02:12:45;5.22;;;3.75;;
48215;SDS011;34005;48.844;10.098;2024-03-23T02:15:11;6.15;;;3.55;;
48215;SDS011;34005;48.844;10.098;2024-03-23T02:17:39;7.10;;;3.38;;
48215;SDS011;34005;48.844;10.098;2024-03-23T02:20:05;5.95;;;3.92;;
48215;SDS011;34005;48.844;10.098;2024-03-23T02:22:35;27.25;;;13.25;;
48215;SDS011;34005;48.844;10.098;2024-03-23T02:25:04;6.45;;;4.10;;
48215;SDS011;34005;48.844;10.098;2024-03-23T02:27:31;5.72;;;4.22;;
48215;SDS011;34005;48.844;10.098;2024-03-23T02:29:58;5.85;;;3.55;;
48215;SDS011;34005;48.844;10.098;2024-03-23T02:32:24;5.28;;;3.38;;
48215;SDS011;34005;48.844;10.098;2024-03-23T02:34:50;5.60;;;3.22;;
48215;SDS011;34005;48.844;10.098;2024-03-23T02:37:17;3.85;;;2.90;;
48215;SDS011;34005;48.844;10.098;2024-03-23T02:39:42;5.25;;;3.35;;
48215;SDS011;34005;48.844;10.098;2024-03-23T02:42:10;4.82;;;3.10;;
48215;SDS011;34005;48.844;10.098;2024-03-23T02:44:36;5.30;;;3.45;;
48215;SDS011;34005;48.844;10.098;2024-03-23T02:47:03;5.03;;;2.88;;
48215;SDS011;34005;48.844;10.098;2024-03-23T02:49:29;7.05;;;3.35;;
48215;SDS011;34005;48.844;10.098;2024-03-23T02:51:56;5.28;;;3.33;;
48215;SDS011;34005;48.844;10.098;2024-03-23T02:54:21;6.18;;;3.08;;
48215;SDS011;34005;48.844;10.098;2024-03-23T02:56:48;3.85;;;2.83;;
48215;SDS011;34005;48.844;10.098;2024-03-23T02:59:15;8.73;;;3.70;;
48215;SDS011;34005;48.844;10.098;2024-03-23T03:01:41;5.15;;;2.85;;
48215;SDS011;34005;48.844;10.098;2024-03-23T03:04:07;5.43;;;2.70;;
48215;SDS011;34005;48.844;10.098;2024-03-23T03:06:34;6.00;;;2.75;;
48215;SDS011;34005;48.844;10.098;2024-03-23T03:08:59;6.25;;;2.90;;
48215;SDS011;34005;48.844;10.098;2024-03-23T03:11:26;4.25;;;2.33;;
48215;SDS011;34005;48.844;10.098;2024-03-23T03:13:52;7.40;;;3.25;;
48215;SDS011;34005;48.844;10.098;2024-03-23T03:16:20;3.53;;;2.60;;
48215;SDS011;34005;48.844;10.098;2024-03-23T03:18:45;3.13;;;2.83;;
48215;SDS011;34005;48.844;10.098;2024-03-23T03:21:12;4.55;;;2.60;;
48215;SDS011;34005;48.844;10.098;2024-03-23T03:23:38;4.50;;;2.60;;
48215;SDS011;34005;48.844;10.098;2024-03-23T03:26:05;4.40;;;2.60;;
48215;SDS011;34005;48.844;10.098;2024-03-23T03:28:31;6.00;;;2.10;;
48215;SDS011;34005;48.844;10.098;2024-03-23T03:30:58;3.25;;;2.10;;
48215;SDS011;34005;48.844;10.098;2024-03-23T03:33:26;3.38;;;2.42;;
48215;SDS011;34005;48.844;10.098;2024-03-23T03:35:52;3.15;;;1.90;;
48215;SDS011;34005;48.844;10.098;2024-03-23T03:38:18;4.13;;;1.98;;
48215;SDS011;34005;48.844;10.098;2024-03-23T03:40:45;3.17;;;2.20;;
48215;SDS011;34005;48.844;10.098;2024-03-23T03:43:11;2.83;;;2.13;;
48215;SDS011;34005;48.844;10.098;2024-03-23T03:45:37;3.08;;;1.80;;
48215;SDS011;34005;48.844;10.098;2024-03-23T03:48:03;1.95;;;1.80;;
48215;SDS011;34005;48.844;10.098;2024-03-23T03:50:32;2.45;;;1.95;;
48215;SDS011;34005;48.844;10.098;2024-03-23T03:52:57;3.60;;;2.10;;
48215;SDS011;34005;48.844;10.098;2024-03-23T03:55:24;5.20;;;2.40;;
48215;SDS011;34005;48.844;10.098;2024-03-23T03:57:50;4.68;;;1.77;;
48215;SDS011;34005;48.844;10.098;2024-03-23T04:00:16;2.65;;;1.90;;
48215;SDS011;34005;48.844;10.098;2024-03-23T04:02:42;2.35;;;2.10;;
48215;SDS011;34005;48.844;10.098;2024-03-23T04:05:09;3.58;;;1.77;;
48215;SDS011;34005;48.844;10.098;2024-03-23T04:07:36;2.20;;;2.00;;
48215;SDS011;34005;48.844;10.098;2024-03-23T04:10:03;2.53;;;2.13;;
48215;SDS011;34005;48.844;10.098;2024-03-23T04:12:32;2.42;;;2.08;;
48215;SDS011;34005;48.844;10.098;2024-03-23T04:14:59;2.75;;;2.30;;
48215;SDS011;34005;48.844;10.098;2024-03-23T04:17:25;11.20;;;5.07;;
48215;SDS011;34005;48.844;10.098;2024-03-23T04:19:56;11.23;;;5.97;;
48215;SDS011;34005;48.844;10.098;2024-03-23T04:22:22;10.30;;;5.78;;
48215;SDS011;34005;48.844;10.098;2024-03-23T04:24:52;13.38;;;6.65;;
48215;SDS011;34005;48.844;10.098;2024-03-23T04:27:18;18.55;;;6.97;;
48215;SDS011;34005;48.844;10.098;2024-03-23T04:29:46;11.45;;;6.28;;
48215;SDS011;34005;48.844;10.098;2024-03-23T04:32:13;6.50;;;3.80;;
48215;SDS011;34005;48.844;10.098;2024-03-23T04:34:39;4.93;;;3.15;;
48215;SDS011;34005;48.844;10.098;2024-03-23T04:37:05;5.13;;;2.97;;
48215;SDS011;34005;48.844;10.098;2024-03-23T04:39:32;6.40;;;3.25;;
48215;SDS011;34005;48.844;10.098;2024-03-23T04:42:00;3.53;;;2.60;;
48215;SDS011;34005;48.844;10.098;2024-03-23T04:44:27;5.07;;;2.72;;
48215;SDS011;34005;48.844;10.098;2024-03-23T04:46:53;3.33;;;2.80;;
48215;SDS011;34005;48.844;10.098;2024-03-23T04:49:20;8.57;;;3.65;;
48215;SDS011;34005;48.844;10.098;2024-03-23T04:51:46;5.75;;;3.47;;
48215;SDS011;34005;48.844;10.098;2024-03-23T04:54:12;4.32;;;3.03;;
48215;SDS011;34005;48.844;10.098;2024-03-23T04:56:39;4.85;;;3.30;;
48215;SDS011;34005;48.844;10.098;2024-03-23T04:59:07;6.40;;;3.47;;
48215;SDS011;34005;48.844;10.098;2024-03-23T05:01:33;3.83;;;3.45;;
48215;SDS011;34005;48.844;10.098;2024-03-23T05:04:00;3.65;;;2.45;;
48215;SDS011;34005;48.844;10.098;2024-03-23T05:06:26;2.40;;;2.20;;
48215;SDS011;34005;48.844;10.098;2024-03-23T05:08:53;2.95;;;2.42;;
48215;SDS011;34005;48.844;10.098;2024-03-23T05:11:19;4.47;;;2.50;;
48215;SDS011;34005;48.844;10.098;2024-03-23T05:13:46;4.88;;;2.78;;
48215;SDS011;34005;48.844;10.098;2024-03-23T05:16:13;2.45;;;2.15;;
48215;SDS011;34005;48.844;10.098;2024-03-23T05:18:40;5.13;;;2.42;;
48215;SDS011;34005;48.844;10.098;2024-03-23T05:21:05;4.10;;;2.78;;
48215;SDS011;34005;48.844;10.098;2024-03-23T05:23:32;5.03;;;2.13;;
48215;SDS011;34005;48.844;10.098;2024-03-23T05:25:58;5.05;;;2.65;;
48215;SDS011;34005;48.844;10.098;2024-03-23T05:28:24;5.07;;;2.45;;
48215;SDS011;34005;48.844;10.098;2024-03-23T05:30:50;4.45;;;2.50;;
48215;SDS011;34005;48.844;10.098;2024-03-23T05:33:19;3.55;;;2.50;;
48215;SDS011;34005;48.844;10.098;2024-03-23T05:35:45;7.43;;;2.92;;
48215;SDS011;34005;48.844;10.098;2024-03-23T05:38:12;3.22;;;2.90;;
48215;SDS011;34005;48.844;10.098;2024-03-23T05:40:38;4.13;;;2.95;;
48215;SDS011;34005;48.844;10.098;2024-03-23T05:43:05;3.08;;;2.78;;
48215;SDS011;34005;48.844;10.098;2024-03-23T05:45:31;7.43;;;3.53;;
48215;SDS011;34005;48.844;10.098;2024-03-23T05:47:58;4.82;;;3.80;;
48215;SDS011;34005;48.844;10.098;2024-03-23T05:50:25;6.43;;;4.05;;
48215;SDS011;34005;48.844;10.098;2024-03-23T05:52:51;5.50;;;4.68;;
48215;SDS011;34005;48.844;10.098;2024-03-23T05:55:17;7.22;;;5.75;;
48215;SDS011;34005;48.844;10.098;2024-03-23T05:57:43;12.02;;;6.40;;
48215;SDS011;34005;48.844;10.098;2024-03-23T06:00:10;12.23;;;7.50;;
48215;SDS011;34005;48.844;10.098;2024-03-23T06:02:41;11.38;;;7.65;;
48215;SDS011;34005;48.844;10.098;2024-03-23T06:05:09;11.85;;;8.75;;
48215;SDS011;34005;48.844;10.098;2024-03-23T06:07:37;10.55;;;8.68;;
48215;SDS011;34005;48.844;10.098;2024-03-23T06:10:04;12.80;;;8.65;;
48215;SDS011;34005;48.844;10.098;2024-03-23T06:12:31;13.95;;;9.82;;
48215;SDS011;34005;48.844;10.098;2024-03-23T06:14:57;13.52;;;10.45;;
48215;SDS011;34005;48.844;10.098;2024-03-23T06:17:24;13.23;;;10.00;;
48215;SDS011;34005;48.844;10.098;2024-03-23T06:19:49;11.25;;;9.57;;
48215;SDS011;34005;48.844;10.098;2024-03-23T06:22:16;14.10;;;9.10;;
48215;SDS011;34005;48.844;10.098;2024-03-23T06:24:43;12.40;;;9.02;;
48215;SDS011;34005;48.844;10.098;2024-03-23T06:27:10;13.15;;;9.68;;
48215;SDS011;34005;48.844;10.098;2024-03-23T06:29:36;14.98;;;9.85;;
48215;SDS011;34005;48.844;10.098;2024-03-23T06:32:03;14.27;;;9.30;;
48215;SDS011;34005;48.844;10.098;2024-03-23T06:34:28;13.57;;;8.70;;
48215;SDS011;34005;48.844;10.098;2024-03-23T06:36:55;12.68;;;8.45;;
48215;SDS011;34005;48.844;10.098;2024-03-23T06:39:21;10.52;;;7.35;;
48215;SDS011;34005;48.844;10.098;2024-03-23T06:41:52;7.13;;;6.05;;
48215;SDS011;34005;48.844;10.098;2024-03-23T06:44:19;10.55;;;5.78;;
48215;SDS011;34005;48.844;10.098;2024-03-23T06:46:46;8.70;;;5.10;;
48215;SDS011;34005;48.844;10.098;2024-03-23T06:49:12;7.97;;;6.18;;
48215;SDS011;34005;48.844;10.098;2024-03-23T06:51:38;5.55;;;4.90;;
48215;SDS011;34005;48.844;10.098;2024-03-23T06:54:04;7.47;;;5.43;;
48215;SDS011;34005;48.844;10.098;2024-03-23T06:56:31;6.82;;;5.18;;
48215;SDS011;34005;48.844;10.098;2024-03-23T06:58:58;5.07;;;4.40;;
48215;SDS011;34005;48.844;10.098;2024-03-23T07:01:25;5.75;;;4.40;;
48215;SDS011;34005;48.844;10.098;2024-03-23T07:03:51;4.57;;;3.90;;
48215;SDS011;34005;48.844;10.098;2024-03-23T07:06:18;4.30;;;3.72;;
48215;SDS011;34005;48.844;10.098;2024-03-23T07:08:43;5.25;;;3.85;;
48215;SDS011;34005;48.844;10.098;2024-03-23T07:11:10;5.47;;;4.13;;
48215;SDS011;34005;48.844;10.098;2024-03-23T07:13:35;4.22;;;3.47;;
48215;SDS011;34005;48.844;10.098;2024-03-23T07:16:04;3.92;;;3.28;;
48215;SDS011;34005;48.844;10.098;2024-03-23T07:18:29;7.85;;;4.20;;
48215;SDS011;34005;48.844;10.098;2024-03-23T07:20:56;4.78;;;3.65;;
48215;SDS011;34005;48.844;10.098;2024-03-23T07:23:23;6.88;;;4.07;;
48215;SDS011;34005;48.844;10.098;2024-03-23T07:25:56;6.68;;;4.22;;
48215;SDS011;34005;48.844;10.098;2024-03-23T07:28:22;6.55;;;4.00;;
48215;SDS011;34005;48.844;10.098;2024-03-23T07:31:00;3.80;;;3.20;;
48215;SDS011;34005;48.844;10.098;2024-03-23T07:33:28;3.63;;;3.03;;
48215;SDS011;34005;48.844;10.098;2024-03-23T07:35:54;4.05;;;3.10;;
48215;SDS011;34005;48.844;10.098;2024-03-23T07:38:20;3.67;;;3.20;;
48215;SDS011;34005;48.844;10.098;2024-03-23T07:40:47;3.65;;;2.72;;
48215;SDS011;34005;48.844;10.098;2024-03-23T07:43:15;4.43;;;3.20;;
48215;SDS011;34005;48.844;10.098;2024-03-23T07:45:41;3.65;;;3.20;;
48215;SDS011;34005;48.844;10.098;2024-03-23T07:48:07;3.55;;;2.65;;
48215;SDS011;34005;48.844;10.098;2024-03-23T07:50:35;3.47;;;2.45;;
48215;SDS011;34005;48.844;10.098;2024-03-23T07:53:01;3.55;;;2.63;;
48215;SDS011;34005;48.844;10.098;2024-03-23T07:55:27;3.67;;;2.25;;
48215;SDS011;34005;48.844;10.098;2024-03-23T07:57:53;2.20;;;1.80;;
48215;SDS011;34005;48.844;10.098;2024-03-23T08:00:20;4.60;;;2.53;;
48215;SDS011;34005;48.844;10.098;2024-03-23T08:02:45;5.55;;;2.30;;
48215;SDS011;34005;48.844;10.098;2024-03-23T08:05:12;2.30;;;1.77;;
48215;SDS011;34005;48.844;10.098;2024-03-23T08:07:39;1.27;;;1.17;;
48215;SDS011;34005;48.844;10.098;2024-03-23T08:10:06;1.50;;;1.35;;
48215;SDS011;34005;48.844;10.098;2024-03-23T08:12:32;1.30;;;1.20;;
48215;SDS011;34005;48.844;10.098;2024-03-23T08:14:58;1.23;;;1.13;;
48215;SDS011;34005;48.844;10.098;2024-03-23T08:17:24;1.48;;;1.00;;
48215;SDS011;34005;48.844;10.098;2024-03-23T08:19:50;0.82;;;0.82;;
48215;SDS011;34005;48.844;10.098;2024-03-23T08:22:17;0.93;;;0.82;;
48215;SDS011;34005;48.844;10.098;2024-03-23T08:24:46;1.20;;;1.02;;
48215;SDS011;34005;48.844;10.098;2024-03-23T08:27:11;1.33;;;1.23;;
48215;SDS011;34005;48.844;10.098;2024-03-23T08:29:38;1.15;;;1.13;;
48215;SDS011;34005;48.844;10.098;2024-03-23T08:32:04;1.15;;;1.10;;
48215;SDS011;34005;48.844;10.098;2024-03-23T08:34:30;1.00;;;1.00;;
48215;SDS011;34005;48.844;10.098;2024-03-23T08:36:56;0.93;;;0.93;;
48215;SDS011;34005;48.844;10.098;2024-03-23T08:39:22;1.10;;;1.02;;
48215;SDS011;34005;48.844;10.098;2024-03-23T08:41:50;0.90;;;0.90;;
48215;SDS011;34005;48.844;10.098;2024-03-23T08:44:16;0.90;;;0.90;;
48215;SDS011;34005;48.844;10.098;2024-03-23T08:46:42;0.68;;;0.68;;
48215;SDS011;34005;48.844;10.098;2024-03-23T08:49:09;1.50;;;1.00;;
48215;SDS011;34005;48.844;10.098;2024-03-23T08:51:34;0.88;;;0.88;;
48215;SDS011;34005;48.844;10.098;2024-03-23T08:54:01;1.10;;;1.00;;
48215;SDS011;34005;48.844;10.098;2024-03-23T08:56:27;1.05;;;1.00;;
48215;SDS011;34005;48.844;10.098;2024-03-23T08:58:55;1.02;;;0.93;;
48215;SDS011;34005;48.844;10.098;2024-03-23T09:01:21;0.80;;;0.77;;
48215;SDS011;34005;48.844;10.098;2024-03-23T09:03:47;1.75;;;0.60;;
48215;SDS011;34005;48.844;10.098;2024-03-23T09:06:14;0.45;;;0.45;;
48215;SDS011;34005;48.844;10.098;2024-03-23T09:08:41;0.20;;;0.20;;
48215;SDS011;34005;48.844;10.098;2024-03-23T09:11:07;0.40;;;0.30;;
48215;SDS011;34005;48.844;10.098;2024-03-23T09:13:35;0.22;;;0.22;;
48215;SDS011;34005;48.844;10.098;2024-03-23T09:16:05;2.22;;;0.30;;
48215;SDS011;34005;48.844;10.098;2024-03-23T09:18:31;0.30;;;0.22;;
48215;SDS011;34005;48.844;10.098;2024-03-23T09:20:59;0.30;;;0.30;;
48215;SDS011;34005;48.844;10.098;2024-03-23T09:23:24;0.50;;;0.30;;
48215;SDS011;34005;48.844;10.098;2024-03-23T09:25:51;1.13;;;0.47;;
48215;SDS011;34005;48.844;10.098;2024-03-23T09:28:17;0.68;;;0.50;;
48215;SDS011;34005;48.844;10.098;2024-03-23T09:30:43;1.75;;;0.50;;
48215;SDS011;34005;48.844;10.098;2024-03-23T09:33:10;1.35;;;0.50;;
48215;SDS011;34005;48.844;10.098;2024-03-23T09:35:38;1.90;;;0.60;;
48215;SDS011;34005;48.844;10.098;2024-03-23T09:38:04;3.22;;;1.20;;
48215;SDS011;34005;48.844;10.098;2024-03-23T09:40:32;2.58;;;1.40;;
48215;SDS011;34005;48.844;10.098;2024-03-23T09:42:58;2.25;;;1.08;;
48215;SDS011;34005;48.844;10.098;2024-03-23T09:45:26;1.83;;;0.90;;
48215;SDS011;34005;48.844;10.098;2024-03-23T09:47:53;3.67;;;1.17;;
48215;SDS011;34005;48.844;10.098;2024-03-23T09:50:22;2.95;;;1.48;;
48215;SDS011;34005;48.844;10.098;2024-03-23T09:52:48;3.25;;;0.95;;
48215;SDS011;34005;48.844;10.098;2024-03-23T09:55:15;2.38;;;1.35;;
48215;SDS011;34005;48.844;10.098;2024-03-23T09:57:41;1.23;;;1.10;;
48215;SDS011;34005;48.844;10.098;2024-03-23T10:00:08;1.80;;;1.17;;
48215;SDS011;34005;48.844;10.098;2024-03-23T10:02:35;2.50;;;1.58;;
48215;SDS011;34005;48.844;10.098;2024-03-23T10:05:01;2.15;;;1.55;;
48215;SDS011;34005;48.844;10.098;2024-03-23T10:07:28;3.22;;;1.80;;
48215;SDS011;34005;48.844;10.098;2024-03-23T10:09:55;3.25;;;1.83;;
48215;SDS011;34005;48.844;10.098;2024-03-23T10:12:22;3.45;;;1.88;;
48215;SDS011;34005;48.844;10.098;2024-03-23T10:14:49;5.20;;;1.90;;
48215;SDS011;34005;48.844;10.098;2024-03-23T10:17:16;3.72;;;1.90;;
48215;SDS011;34005;48.844;10.098;2024-03-23T10:19:43;3.05;;;1.63;;
48215;SDS011;34005;48.844;10.098;2024-03-23T10:22:10;4.10;;;2.30;;
48215;SDS011;34005;48.844;10.098;2024-03-23T10:24:41;8.27;;;2.35;;
48215;SDS011;34005;48.844;10.098;2024-03-23T10:27:07;3.78;;;2.00;;
48215;SDS011;34005;48.844;10.098;2024-03-23T10:29:33;3.90;;;2.22;;
48215;SDS011;34005;48.844;10.098;2024-03-23T10:32:10;5.60;;;2.30;;
48215;SDS011;34005;48.844;10.098;2024-03-23T10:34:36;6.60;;;2.42;;
48215;SDS011;34005;48.844;10.098;2024-03-23T10:37:03;5.35;;;2.35;;
48215;SDS011;34005;48.844;10.098;2024-03-23T10:39:33;5.40;;;2.88;;
48215;SDS011;34005;48.844;10.098;2024-03-23T10:42:06;5.82;;;2.67;;
48215;SDS011;34005;48.844;10.098;2024-03-23T10:44:33;4.43;;;2.40;;
48215;SDS011;34005;48.844;10.098;2024-03-23T10:47:00;4.20;;;2.30;;
48215;SDS011;34005;48.844;10.098;2024-03-23T10:49:28;7.07;;;2.35;;
48215;SDS011;34005;48.844;10.098;2024-03-23T10:51:56;4.80;;;2.88;;
48215;SDS011;34005;48.844;10.098;2024-03-23T10:54:24;5.13;;;2.75;;
48215;SDS011;34005;48.844;10.098;2024-03-23T10:56:53;6.32;;;3.65;;
48215;SDS011;34005;48.844;10.098;2024-03-23T10:59:24;6.10;;;2.70;;
48215;SDS011;34005;48.844;10.098;2024-03-23T11:01:55;5.90;;;3.25;;
48215;SDS011;34005;48.844;10.098;2024-03-23T11:04:31;5.63;;;2.78;;
48215;SDS011;34005;48.844;10.098;2024-03-23T11:06:58;5.00;;;2.70;;
48215;SDS011;34005;48.844;10.098;2024-03-23T11:09:40;5.55;;;3.05;;
48215;SDS011;34005;48.844;10.098;2024-03-23T11:12:17;6.57;;;2.88;;
48215;SDS011;34005;48.844;10.098;2024-03-23T11:14:52;6.38;;;2.42;;
48215;SDS011;34005;48.844;10.098;2024-03-23T11:17:20;4.55;;;2.20;;
48215;SDS011;34005;48.844;10.098;2024-03-23T11:19:52;4.63;;;2.38;;
48215;SDS011;34005;48.844;10.098;2024-03-23T11:25:04;8.40;;;2.90;;
48215;SDS011;34005;48.844;10.098;2024-03-23T11:27:39;5.03;;;2.38;;
48215;SDS011;34005;48.844;10.098;2024-03-23T11:30:16;5.82;;;2.58;;
48215;SDS011;34005;48.844;10.098;2024-03-23T11:32:44;5.82;;;2.97;;
48215;SDS011;34005;48.844;10.098;2024-03-23T11:35:11;5.32;;;2.53;;
48215;SDS011;34005;48.844;10.098;2024-03-23T11:40:32;2.72;;;2.08;;
48215;SDS011;34005;48.844;10.098;2024-03-23T11:43:00;2.70;;;2.00;;
48215;SDS011;34005;48.844;10.098;2024-03-23T11:45:27;3.72;;;2.40;;
48215;SDS011;34005;48.844;10.098;2024-03-23T11:48:01;3.30;;;2.15;;
48215;SDS011;34005;48.844;10.098;2024-03-23T11:50:28;4.18;;;2.25;;
48215;SDS011;34005;48.844;10.098;2024-03-23T11:53:05;5.25;;;2.55;;
48215;SDS011;34005;48.844;10.098;2024-03-23T11:55:41;6.43;;;2.50;;
48215;SDS011;34005;48.844;10.098;2024-03-23T11:58:09;5.40;;;2.60;;
48215;SDS011;34005;48.844;10.098;2024-03-23T12:00:37;5.90;;;2.92;;
48215;SDS011;34005;48.844;10.098;2024-03-23T12:03:04;5.82;;;2.65;;
48215;SDS011;34005;48.844;10.098;2024-03-23T12:05:30;4.68;;;2.33;;
48215;SDS011;34005;48.844;10.098;2024-03-23T12:10:40;5.53;;;2.92;;
48215;SDS011;34005;48.844;10.098;2024-03-23T12:13:07;4.72;;;3.00;;
48215;SDS011;34005;48.844;10.098;2024-03-23T12:15:33;6.78;;;2.65;;
48215;SDS011;34005;48.844;10.098;2024-03-23T12:18:08;6.82;;;2.55;;
48215;SDS011;34005;48.844;10.098;2024-03-23T12:20:34;6.97;;;2.55;;
48215;SDS011;34005;48.844;10.098;2024-03-23T12:23:04;3.65;;;2.42;;
48215;SDS011;34005;48.844;10.098;2024-03-23T12:25:31;7.03;;;3.08;;
48215;SDS011;34005;48.844;10.098;2024-03-23T12:27:58;5.72;;;3.13;;
48215;SDS011;34005;48.844;10.098;2024-03-23T12:30:24;4.68;;;2.78;;
48215;SDS011;34005;48.844;10.098;2024-03-23T12:32:51;5.75;;;2.50;;
48215;SDS011;34005;48.844;10.098;2024-03-23T12:35:18;7.00;;;3.25;;
48215;SDS011;34005;48.844;10.098;2024-03-23T12:37:44;3.17;;;2.10;;
48215;SDS011;34005;48.844;10.098;2024-03-23T12:40:10;4.82;;;2.80;;
48215;SDS011;34005;48.844;10.098;2024-03-23T12:42:37;5.88;;;2.55;;
48215;SDS011;34005;48.844;10.098;2024-03-23T12:45:03;4.43;;;2.30;;
48215;SDS011;34005;48.844;10.098;2024-03-23T12:47:30;5.03;;;2.30;;
48215;SDS011;34005;48.844;10.098;2024-03-23T12:49:56;4.25;;;2.20;;
48215;SDS011;34005;48.844;10.098;2024-03-23T12:52:24;4.90;;;2.33;;
48215;SDS011;34005;48.844;10.098;2024-03-23T12:54:54;3.95;;;2.10;;
48215;SDS011;34005;48.844;10.098;2024-03-23T12:57:22;4.00;;;1.95;;
48215;SDS011;34005;48.844;10.098;2024-03-23T12:59:49;3.58;;;1.85;;
48215;SDS011;34005;48.844;10.098;2024-03-23T13:02:17;6.15;;;1.90;;
48215;SDS011;34005;48.844;10.098;2024-03-23T13:04:44;4.22;;;2.40;;
48215;SDS011;34005;48.844;10.098;2024-03-23T13:07:12;3.40;;;1.92;;
48215;SDS011;34005;48.844;10.098;2024-03-23T13:09:39;2.80;;;1.65;;
48215;SDS011;34005;48.844;10.098;2024-03-23T13:12:06;5.70;;;2.30;;
48215;SDS011;34005;48.844;10.098;2024-03-23T13:14:33;6.75;;;2.90;;
48215;SDS011;34005;48.844;10.098;2024-03-23T13:16:59;5.82;;;3.60;;
48215;SDS011;34005;48.844;10.098;2024-03-23T13:19:25;6.03;;;2.30;;
48215;SDS011;34005;48.844;10.098;2024-03-23T13:21:55;5.93;;;2.42;;
48215;SDS011;34005;48.844;10.098;2024-03-23T13:24:21;4.10;;;2.13;;
48215;SDS011;34005;48.844;10.098;2024-03-23T13:26:50;4.32;;;1.80;;
48215;SDS011;34005;48.844;10.098;2024-03-23T13:29:17;6.05;;;1.83;;
48215;SDS011;34005;48.844;10.098;2024-03-23T13:31:44;3.58;;;2.05;;
48215;SDS011;34005;48.844;10.098;2024-03-23T13:34:10;6.70;;;1.98;;
48215;SDS011;34005;48.844;10.098;2024-03-23T13:36:38;3.55;;;1.67;;
48215;SDS011;34005;48.844;10.098;2024-03-23T13:39:04;4.88;;;2.10;;
48215;SDS011;34005;48.844;10.098;2024-03-23T13:41:37;6.13;;;1.80;;
48215;SDS011;34005;48.844;10.098;2024-03-23T13:44:05;3.17;;;1.52;;
48215;SDS011;34005;48.844;10.098;2024-03-23T13:46:32;3.60;;;1.63;;
48215;SDS011;34005;48.844;10.098;2024-03-23T13:48:58;3.88;;;1.67;;
48215;SDS011;34005;48.844;10.098;2024-03-23T13:51:25;4.50;;;1.73;;
48215;SDS011;34005;48.844;10.098;2024-03-23T13:53:52;3.40;;;1.90;;
48215;SDS011;34005;48.844;10.098;2024-03-23T13:56:19;3.75;;;2.08;;
48215;SDS011;34005;48.844;10.098;2024-03-23T13:58:45;5.60;;;1.95;;
48215;SDS011;34005;48.844;10.098;2024-03-23T14:01:14;3.80;;;1.58;;
48215;SDS011;34005;48.844;10.098;2024-03-23T14:03:40;6.93;;;2.00;;
48215;SDS011;34005;48.844;10.098;2024-03-23T14:06:07;4.18;;;1.48;;
48215;SDS011;34005;48.844;10.098;2024-03-23T14:08:33;5.88;;;2.55;;
48215;SDS011;34005;48.844;10.098;2024-03-23T14:11:01;8.95;;;2.22;;
48215;SDS011;34005;48.844;10.098;2024-03-23T14:13:29;6.18;;;2.88;;
48215;SDS011;34005;48.844;10.098;2024-03-23T14:15:56;3.92;;;1.70;;
48215;SDS011;34005;48.844;10.098;2024-03-23T14:18:23;4.57;;;1.73;;
48215;SDS011;34005;48.844;10.098;2024-03-23T14:20:51;3.20;;;1.25;;
48215;SDS011;34005;48.844;10.098;2024-03-23T14:23:18;5.85;;;1.67;;
48215;SDS011;34005;48.844;10.098;2024-03-23T14:25:45;4.45;;;1.50;;
48215;SDS011;34005;48.844;10.098;2024-03-23T14:28:11;5.20;;;1.65;;
48215;SDS011;34005;48.844;10.098;2024-03-23T14:30:40;5.22;;;2.30;;
48215;SDS011;34005;48.844;10.098;2024-03-23T14:33:07;4.18;;;1.70;;
48215;SDS011;34005;48.844;10.098;2024-03-23T14:35:35;4.07;;;1.42;;
48215;SDS011;34005;48.844;10.098;2024-03-23T14:38:01;6.15;;;1.50;;
48215;SDS011;34005;48.844;10.098;2024-03-23T14:40:28;3.95;;;1.70;;
48215;SDS011;34005;48.844;10.098;2024-03-23T14:42:53;5.07;;;1.90;;
48215;SDS011;34005;48.844;10.098;2024-03-23T14:45:20;5.95;;;2.03;;
48215;SDS011;34005;48.844;10.098;2024-03-23T14:47:46;4.13;;;1.70;;
48215;SDS011;34005;48.844;10.098;2024-03-23T14:50:13;7.97;;;2.97;;
48215;SDS011;34005;48.844;10.098;2024-03-23T14:52:42;7.45;;;2.28;;
48215;SDS011;34005;48.844;10.098;2024-03-23T14:55:10;4.70;;;2.03;;
48215;SDS011;34005;48.844;10.098;2024-03-23T14:57:36;4.82;;;2.22;;
48215;SDS011;34005;48.844;10.098;2024-03-23T15:00:05;5.63;;;2.03;;
48215;SDS011;34005;48.844;10.098;2024-03-23T15:02:32;7.28;;;1.40;;
48215;SDS011;34005;48.844;10.098;2024-03-23T15:04:59;3.05;;;0.80;;
48215;SDS011;34005;48.844;10.098;2024-03-23T15:07:25;2.70;;;0.90;;
48215;SDS011;34005;48.844;10.098;2024-03-23T15:09:54;2.85;;;0.90;;
48215;SDS011;34005;48.844;10.098;2024-03-23T15:12:20;5.50;;;0.90;;
48215;SDS011;34005;48.844;10.098;2024-03-23T15:14:47;4.47;;;1.63;;
48215;SDS011;34005;48.844;10.098;2024-03-23T15:17:13;2.78;;;1.30;;
48215;SDS011;34005;48.844;10.098;2024-03-23T15:19:40;2.70;;;0.95;;
48215;SDS011;34005;48.844;10.098;2024-03-23T15:22:07;2.85;;;1.00;;
48215;SDS011;34005;48.844;10.098;2024-03-23T15:24:35;1.50;;;0.75;;
48215;SDS011;34005;48.844;10.098;2024-03-23T15:27:02;3.78;;;0.80;;
48215;SDS011;34005;48.844;10.098;2024-03-23T15:29:29;3.30;;;1.08;;
48215;SDS011;34005;48.844;10.098;2024-03-23T15:31:56;1.50;;;0.90;;